createdAt,value
2023-05-19T00:02:15.793Z,99034.88
2023-05-19T00:05:19.441Z,99030.84
2023-05-19T00:08:21.889Z,99038.13
2023-05-19T00:11:26.858Z,99031.03
2023-05-19T00:14:29.889Z,99029.59
2023-05-19T00:17:34.340Z,99029.41
2023-05-19T00:20:37.731Z,99024.22
2023-05-19T00:23:40.311Z,99018.91
2023-05-19T00:26:44.320Z,99017.75
2023-05-19T00:29:46.899Z,99016.50
2023-05-19T00:32:49.758Z,99018.91
2023-05-19T00:35:52.298Z,99024.03
2023-05-19T00:38:54.894Z,99019.22
2023-05-19T00:41:58.824Z,99018.59
2023-05-19T00:45:01.383Z,99015.25
2023-05-19T00:48:04.221Z,99019.75
2023-05-19T00:51:06.911Z,99028.16
2023-05-19T00:54:09.548Z,99024.47
2023-05-19T00:57:13.683Z,99014.97
2023-05-19T01:00:17.212Z,99016.56
2023-05-19T01:03:20.610Z,99017.38
2023-05-19T01:06:23.516Z,99018.19
2023-05-19T01:09:26.100Z,99018.34
2023-05-19T01:12:30.635Z,99006.56
2023-05-19T01:15:35.821Z,99003.47
2023-05-19T01:18:45.483Z,98995.09
2023-05-19T01:22:23.735Z,99005.41
2023-05-19T01:25:43.735Z,99017.97
2023-05-19T01:29:10.059Z,99022.31
2023-05-19T01:32:17.133Z,99021.66
2023-05-19T01:35:20.306Z,99026.03
2023-05-19T01:38:23.204Z,99024.22
2023-05-19T01:41:26.456Z,99023.75
2023-05-19T01:44:29.726Z,99027.97
2023-05-19T01:47:34.065Z,99023.94
2023-05-19T01:50:36.833Z,99025.72
2023-05-19T01:53:39.436Z,99023.63
2023-05-19T01:56:46.482Z,99015.59
2023-05-19T01:59:54.989Z,99020.59
2023-05-19T02:03:06.384Z,99019.00
2023-05-19T02:06:20.470Z,99017.69
2023-05-19T02:09:26.379Z,99023.34
2023-05-19T02:12:31.320Z,99018.19
2023-05-19T02:15:39.543Z,99025.75
2023-05-19T02:18:45.526Z,99024.47
2023-05-19T02:21:48.251Z,99023.81
2023-05-19T02:24:51.761Z,99031.56
2023-05-19T02:27:54.282Z,99026.22
2023-05-19T02:30:56.858Z,99023.81
2023-05-19T02:34:00.847Z,99033.47
2023-05-19T02:37:03.416Z,99028.66
2023-05-19T02:40:08.221Z,99034.31
2023-05-19T02:43:11.073Z,99028.66
2023-05-19T02:46:13.584Z,99031.56
2023-05-19T02:49:17.475Z,99025.97
2023-05-19T02:52:20.142Z,99020.31
2023-05-19T02:55:22.709Z,99014.38
2023-05-19T02:58:25.303Z,99015.16
2023-05-19T03:01:27.847Z,99010.16
2023-05-19T03:04:32.198Z,99005.81
2023-05-19T03:07:34.961Z,99006.63
2023-05-19T03:10:37.575Z,99008.38
2023-05-19T03:13:40.198Z,99007.41
2023-05-19T03:16:43.076Z,99004.69
2023-05-19T03:19:47.039Z,99008.88
2023-05-19T03:22:49.720Z,99013.22
2023-05-19T03:25:54.164Z,99012.09
2023-05-19T03:28:56.796Z,99011.16
2023-05-19T03:31:59.849Z,99006.16
2023-05-19T03:35:04.006Z,99013.75
2023-05-19T03:38:06.642Z,99013.59
2023-05-19T03:41:09.266Z,99010.06
2023-05-19T03:44:11.861Z,99005.03
2023-05-19T03:47:14.461Z,99008.13
2023-05-19T03:50:18.364Z,99001.53
2023-05-19T03:53:20.960Z,99013.44
2023-05-19T03:56:27.823Z,99012.16
2023-05-19T03:59:31.343Z,99016.84
2023-05-19T04:02:34.104Z,99016.31
2023-05-19T04:05:38.163Z,99022.31
2023-05-19T04:08:40.884Z,99027.63
2023-05-19T04:11:44.122Z,99023.59
2023-05-19T04:14:46.793Z,99028.59
2023-05-19T04:17:49.415Z,99029.06
2023-05-19T04:20:53.321Z,99031.50
2023-05-19T04:23:55.931Z,99029.38
2023-05-19T04:27:02.229Z,99038.38
2023-05-19T04:30:05.242Z,99028.88
2023-05-19T04:33:08.002Z,99032.88
2023-05-19T04:36:13.793Z,99040.13
2023-05-19T04:39:16.422Z,99045.75
2023-05-19T04:42:20.257Z,99033.63
2023-05-19T04:45:23.263Z,99037.00
2023-05-19T04:48:26.065Z,99036.78
2023-05-19T04:51:31.272Z,99040.66
2023-05-19T04:54:34.074Z,99038.22
2023-05-19T04:57:37.521Z,99041.56
2023-05-19T05:00:40.288Z,99037.03
2023-05-19T05:03:43.213Z,99049.22
2023-05-19T05:06:48.778Z,99044.06
2023-05-19T05:09:51.603Z,99045.31
2023-05-19T05:12:54.769Z,99044.53
2023-05-19T05:15:58.492Z,99046.56
2023-05-19T05:19:01.976Z,99044.44
2023-05-19T05:22:06.169Z,99040.63
2023-05-19T05:25:09.401Z,99035.88
2023-05-19T05:28:12.073Z,99028.41
2023-05-19T05:31:14.787Z,99031.41
2023-05-19T05:34:17.689Z,99024.09
2023-05-19T05:37:21.679Z,99031.50
2023-05-19T05:40:24.332Z,99027.13
2023-05-19T05:43:27.041Z,99034.81
2023-05-19T05:46:29.670Z,99041.06
2023-05-19T05:49:32.980Z,99039.16
2023-05-19T05:52:38.179Z,99046.16
2023-05-19T05:55:41.470Z,99044.22
2023-05-19T05:58:44.056Z,99044.47
2023-05-19T06:01:46.917Z,99044.81
2023-05-19T06:04:49.587Z,99047.06
2023-05-19T06:07:53.469Z,99041.84
2023-05-19T06:10:56.113Z,99042.97
2023-05-19T06:13:58.753Z,99039.66
2023-05-19T06:17:01.366Z,99042.94
2023-05-19T06:20:05.652Z,99036.81
2023-05-19T06:23:09.556Z,99031.78
2023-05-19T06:26:12.308Z,99030.88
2023-05-19T06:29:14.983Z,99023.41
2023-05-19T06:32:17.708Z,99025.97
2023-05-19T06:35:20.460Z,99024.38
2023-05-19T06:38:24.531Z,99019.56
2023-05-19T06:41:27.529Z,99022.69
2023-05-19T06:44:30.111Z,99020.69
2023-05-19T06:47:32.706Z,99024.31
2023-05-19T06:50:35.569Z,99017.13
2023-05-19T06:53:39.822Z,99032.97
2023-05-19T06:56:42.719Z,99020.22
2023-05-19T06:59:46.717Z,99021.16
2023-05-19T07:02:49.403Z,99025.00
2023-05-19T07:05:52.201Z,99029.97
2023-05-19T07:08:56.710Z,99026.53
2023-05-19T07:12:01.248Z,99021.78
2023-05-19T07:15:04.329Z,99019.69
2023-05-19T07:18:07.188Z,99024.25
2023-05-19T07:21:09.782Z,99018.69
2023-05-19T07:24:13.659Z,99016.56
2023-05-19T07:27:16.205Z,99017.75
2023-05-19T07:30:18.813Z,99014.09
2023-05-19T07:33:21.455Z,99007.63
2023-05-19T07:36:24.100Z,99008.06
2023-05-19T07:39:29.677Z,99007.72
2023-05-19T07:42:32.412Z,99016.00
2023-05-19T07:45:35.201Z,99004.53
2023-05-19T07:48:38.138Z,99005.50
2023-05-19T07:51:41.796Z,99010.50
2023-05-19T07:54:46.722Z,99003.03
2023-05-19T07:57:49.813Z,99006.03
2023-05-19T08:00:53.278Z,99003.19
2023-05-19T08:03:56.004Z,98993.53
2023-05-19T08:06:59.002Z,99000.28
2023-05-19T08:10:03.135Z,98998.47
2023-05-19T08:13:05.838Z,98993.06
2023-05-19T08:16:08.583Z,98992.69
2023-05-19T08:19:11.282Z,98979.25
2023-05-19T08:22:14.082Z,98989.06
2023-05-19T08:25:19.732Z,98996.66
2023-05-19T08:28:22.542Z,98995.19
2023-05-19T08:31:25.503Z,98993.22
2023-05-19T08:34:28.140Z,98983.84
2023-05-19T08:37:33.254Z,98993.28
2023-05-19T08:40:38.835Z,98977.88
2023-05-19T08:43:41.442Z,98979.63
2023-05-19T08:46:44.305Z,98978.19
2023-05-19T08:49:48.475Z,98977.09
2023-05-19T08:52:53.634Z,98973.94
2023-05-19T08:56:04.093Z,98972.31
2023-05-19T08:59:07.390Z,98975.94
2023-05-19T09:02:12.116Z,98979.56
2023-05-19T09:05:15.950Z,98975.97
2023-05-19T09:08:18.795Z,98975.28
2023-05-19T09:11:23.041Z,98971.84
2023-05-19T09:14:25.771Z,98969.91
2023-05-19T09:17:28.477Z,98967.53
2023-05-19T09:20:31.835Z,98978.03
2023-05-19T09:23:34.498Z,98982.03
2023-05-19T09:26:39.928Z,98981.59
2023-05-19T09:29:42.728Z,98974.09
2023-05-19T09:32:45.619Z,98980.44
2023-05-19T09:35:48.630Z,98971.25
2023-05-19T09:38:51.294Z,98973.91
2023-05-19T09:41:56.247Z,98967.59
2023-05-19T09:45:02.715Z,98971.50
2023-05-19T09:48:06.256Z,98967.53
2023-05-19T09:51:10.362Z,98971.22
2023-05-19T09:54:16.168Z,98960.72
2023-05-19T09:57:27.071Z,98964.84
2023-05-19T10:00:31.014Z,98965.44
2023-05-19T10:03:35.125Z,98967.75
2023-05-19T10:06:38.466Z,98963.84
2023-05-19T10:09:42.696Z,98963.56
2023-05-19T10:12:47.263Z,98955.97
2023-05-19T10:19:00.895Z,98954.28
2023-05-19T10:22:03.531Z,98947.91
2023-05-19T10:25:06.940Z,98953.81
2023-05-19T10:28:14.272Z,98959.69
2023-05-19T10:31:19.741Z,98954.19
2023-05-19T10:34:37.412Z,98957.38
2023-05-19T10:37:46.363Z,98962.53
2023-05-19T10:40:55.143Z,98954.19
2023-05-19T10:44:09.006Z,98942.66
2023-05-19T10:47:12.679Z,98944.53
2023-05-19T10:50:15.688Z,98949.84
2023-05-19T10:53:19.487Z,98950.13
2023-05-19T10:56:33.825Z,98950.03
2023-05-19T10:59:39.343Z,98950.09
2023-05-19T11:02:43.360Z,98940.97
2023-05-19T11:05:46.479Z,98942.31
2023-05-19T11:08:54.175Z,98950.75
2023-05-19T11:11:57.093Z,98947.69
2023-05-19T11:15:01.041Z,98945.34
2023-05-19T11:18:04.097Z,98948.41
2023-05-19T11:21:06.940Z,98942.69
2023-05-19T11:24:09.764Z,98940.16
2023-05-19T11:27:22.759Z,98950.00
2023-05-19T11:30:26.629Z,98936.66
2023-05-19T11:33:30.132Z,98948.34
2023-05-19T11:36:32.837Z,98943.56
2023-05-19T11:39:35.841Z,98941.34
2023-05-19T11:42:38.566Z,98940.16
2023-05-19T11:45:42.792Z,98939.56
2023-05-19T11:48:48.368Z,98938.75
2023-05-19T11:51:50.961Z,98937.97
2023-05-19T11:54:53.518Z,98931.50
2023-05-19T11:58:04.044Z,98938.03
2023-05-19T12:01:10.214Z,98922.03
2023-05-19T12:04:12.800Z,98928.13
2023-05-19T12:07:18.349Z,98928.97
2023-05-19T12:10:24.093Z,98928.41
2023-05-19T12:13:26.771Z,98930.53
2023-05-19T12:16:36.790Z,98930.06
2023-05-19T12:19:39.502Z,98924.75
2023-05-19T12:22:42.333Z,98930.91
2023-05-19T12:25:45.100Z,98924.91
2023-05-19T12:28:47.898Z,98931.56
2023-05-19T12:31:51.976Z,98930.34
2023-05-19T12:34:56.417Z,98931.22
2023-05-19T12:38:03.928Z,98940.72
2023-05-19T12:41:06.976Z,98935.97
2023-05-19T12:44:16.222Z,98932.78
2023-05-19T12:47:21.090Z,98926.66
2023-05-19T12:50:31.365Z,98933.16
2023-05-19T12:53:34.712Z,98931.06
2023-05-19T12:56:37.397Z,98928.34
2023-05-19T12:59:40.171Z,98926.59
2023-05-19T13:02:59.055Z,98931.19
2023-05-19T13:06:01.744Z,98924.91
2023-05-19T13:09:04.848Z,98932.28
2023-05-19T13:12:07.856Z,98934.75
2023-05-19T13:15:11.139Z,98923.06
2023-05-19T13:18:15.263Z,98922.44
2023-05-19T13:21:18.029Z,98914.94
2023-05-19T13:24:20.827Z,98916.72
2023-05-19T13:27:24.754Z,98912.06
2023-05-19T13:30:27.812Z,98905.09
2023-05-19T13:33:31.927Z,98909.06
2023-05-19T13:36:35.095Z,98902.06
2023-05-19T13:39:37.742Z,98898.03
2023-05-19T13:42:40.481Z,98897.66
2023-05-19T13:45:44.724Z,98897.31
2023-05-19T13:48:48.630Z,98899.03
2023-05-19T13:51:51.423Z,98904.13
2023-05-19T13:54:54.514Z,98895.59
2023-05-19T13:57:57.161Z,98904.28
2023-05-19T14:01:00.073Z,98898.91
2023-05-19T14:04:05.312Z,98897.84
2023-05-19T14:07:09.644Z,98900.69
2023-05-19T14:10:12.592Z,98892.31
2023-05-19T14:16:28.760Z,98877.06
2023-05-19T14:19:32.791Z,98882.13
2023-05-19T14:22:35.386Z,98879.69
2023-05-19T14:25:38.118Z,98875.94
2023-05-19T14:28:40.802Z,98875.41
2023-05-19T14:31:43.441Z,98886.38
2023-05-19T14:34:47.639Z,98875.72
2023-05-19T14:37:50.324Z,98874.38
2023-05-19T14:40:53.015Z,98873.03
2023-05-19T14:43:56.117Z,98876.00
2023-05-19T14:46:59.018Z,98880.00
2023-05-19T14:50:03.198Z,98878.91
2023-05-19T14:53:06.023Z,98883.34
2023-05-19T14:56:09.302Z,98886.03
2023-05-19T14:59:11.853Z,98883.50
2023-05-19T15:02:14.510Z,98891.66
2023-05-19T15:05:18.726Z,98887.53
2023-05-19T15:08:21.405Z,98883.19
2023-05-19T15:11:24.019Z,98884.19
2023-05-19T15:14:27.936Z,98871.50
2023-05-19T15:17:32.033Z,98873.88
2023-05-19T15:20:36.246Z,98864.78
2023-05-19T15:23:38.986Z,98867.09
2023-05-19T15:26:41.768Z,98866.94
2023-05-19T15:29:44.422Z,98861.56
2023-05-19T15:32:47.017Z,98866.81
2023-05-19T15:35:52.048Z,98862.16
2023-05-19T15:38:54.704Z,98850.81
2023-05-19T15:41:57.539Z,98851.97
2023-05-19T15:45:00.240Z,98848.50
2023-05-19T15:48:02.775Z,98850.31
2023-05-19T15:51:07.013Z,98845.94
2023-05-19T15:54:09.593Z,98840.81
2023-05-19T15:57:13.498Z,98840.06
2023-05-19T16:00:16.808Z,98837.19
2023-05-19T16:03:19.393Z,98836.47
2023-05-19T16:06:24.629Z,98834.94
2023-05-19T16:09:27.343Z,98834.31
2023-05-19T16:12:29.946Z,98828.53
2023-05-19T16:15:32.498Z,98817.66
2023-05-19T16:18:35.094Z,98810.94
2023-05-19T16:21:39.255Z,98813.03
2023-05-19T16:24:42.022Z,98813.44
2023-05-19T16:27:44.751Z,98815.72
2023-05-19T16:30:47.422Z,98805.88
2023-05-19T16:33:50.098Z,98799.19
2023-05-19T16:36:53.952Z,98811.88
2023-05-19T16:39:56.615Z,98804.06
2023-05-19T16:42:59.523Z,98806.09
2023-05-19T16:46:03.470Z,98809.03
2023-05-19T16:49:06.813Z,98803.69
2023-05-19T16:52:10.662Z,98803.75
2023-05-19T16:55:17.245Z,98796.34
2023-05-19T16:58:19.969Z,98790.78
2023-05-19T17:01:22.724Z,98785.22
2023-05-19T17:04:25.428Z,98791.88
2023-05-19T17:07:30.040Z,98798.72
2023-05-19T17:10:32.751Z,98803.22
2023-05-19T17:13:36.683Z,98795.13
2023-05-19T17:16:39.417Z,98800.16
2023-05-19T17:19:42.169Z,98791.41
2023-05-19T17:22:46.195Z,98797.28
2023-05-19T17:25:48.807Z,98789.28
2023-05-19T17:28:51.445Z,98779.13
2023-05-19T17:31:54.207Z,98779.06
2023-05-19T17:34:56.956Z,98781.78
2023-05-19T17:38:01.090Z,98778.50
2023-05-19T17:41:09.556Z,98785.94
2023-05-19T17:44:12.611Z,98773.59
2023-05-19T17:47:15.156Z,98779.47
2023-05-19T17:50:17.960Z,98777.41
2023-05-19T17:53:22.523Z,98771.66
2023-05-19T17:56:25.826Z,98773.44
2023-05-19T17:59:28.929Z,98773.19
2023-05-19T18:02:31.720Z,98768.09
2023-05-19T18:05:34.852Z,98771.34
2023-05-19T18:08:39.937Z,98770.66
2023-05-19T18:11:42.552Z,98772.88
2023-05-19T18:14:45.209Z,98769.00
2023-05-19T18:17:48.219Z,98769.94
2023-05-19T18:20:50.829Z,98760.69
2023-05-19T18:23:54.744Z,98758.91
2023-05-19T18:26:57.367Z,98758.22
2023-05-19T18:30:00.347Z,98763.00
2023-05-19T18:33:04.041Z,98758.00
2023-05-19T18:36:07.343Z,98759.81
2023-05-19T18:39:11.444Z,98754.69
2023-05-19T18:42:14.132Z,98750.41
2023-05-19T18:45:16.880Z,98765.78
2023-05-19T18:48:19.502Z,98753.00
2023-05-19T18:51:22.266Z,98750.13
2023-05-19T18:54:26.292Z,98760.59
2023-05-19T18:57:28.887Z,98752.59
2023-05-19T19:00:31.576Z,98759.22
2023-05-19T19:03:34.285Z,98749.09
2023-05-19T19:06:36.884Z,98752.78
2023-05-19T19:09:43.813Z,98766.22
2023-05-19T19:12:46.539Z,98761.50
2023-05-19T19:15:49.193Z,98765.34
2023-05-19T19:18:51.887Z,98765.28
2023-05-19T19:21:54.732Z,98757.03
2023-05-19T19:24:58.685Z,98778.31
2023-05-19T19:28:02.187Z,98774.09
2023-05-19T19:31:04.725Z,98783.16
2023-05-19T19:34:09.157Z,98776.84
2023-05-19T19:37:14.368Z,98773.63
2023-05-19T19:40:18.666Z,98780.84
2023-05-19T19:43:21.346Z,98781.19
2023-05-19T19:46:23.883Z,98780.63
2023-05-19T19:49:26.929Z,98778.13
2023-05-19T19:52:29.635Z,98777.69
2023-05-19T19:55:33.678Z,98769.50
2023-05-19T19:58:36.271Z,98763.31
2023-05-19T20:01:38.908Z,98763.31
2023-05-19T20:04:41.729Z,98774.34
2023-05-19T20:07:44.664Z,98771.22
2023-05-19T20:10:49.804Z,98768.91
2023-05-19T20:13:52.852Z,98767.44
2023-05-19T20:16:55.692Z,98769.94
2023-05-19T20:19:59.841Z,98779.31
2023-05-19T20:23:02.523Z,98779.22
2023-05-19T20:26:12.417Z,98773.72
2023-05-19T20:29:16.812Z,98767.50
2023-05-19T20:32:19.221Z,98766.81
2023-05-19T20:35:22.485Z,98767.97
2023-05-19T20:38:25.193Z,98762.47
2023-05-19T20:41:29.210Z,98762.13
2023-05-19T20:44:31.819Z,98762.56
2023-05-19T20:47:34.500Z,98756.25
2023-05-19T20:50:37.087Z,98768.41
2023-05-19T20:53:39.708Z,98763.03
2023-05-19T20:56:44.035Z,98764.25
2023-05-19T20:59:46.716Z,98763.53
2023-05-19T21:02:49.627Z,98753.69
2023-05-19T21:05:52.490Z,98766.84
2023-05-19T21:08:55.583Z,98757.00
2023-05-19T21:11:59.836Z,98759.38
2023-05-19T21:15:03.681Z,98757.34
2023-05-19T21:18:07.318Z,98754.59
2023-05-19T21:21:10.072Z,98745.19
2023-05-19T21:24:13.108Z,98745.09
2023-05-19T21:27:17.107Z,98744.06
2023-05-19T21:30:20.259Z,98749.16
2023-05-19T21:33:23.071Z,98743.66
2023-05-19T21:36:25.785Z,98741.38
2023-05-19T21:39:28.566Z,98738.56
2023-05-19T21:42:32.530Z,98740.75
2023-05-19T21:45:35.076Z,98735.66
2023-05-19T21:48:37.677Z,98726.25
2023-05-19T21:51:40.192Z,98735.56
2023-05-19T21:54:43.106Z,98725.38
2023-05-19T21:57:47.065Z,98714.88
2023-05-19T22:00:50.779Z,98720.97
2023-05-19T22:03:53.964Z,98713.22
2023-05-19T22:06:56.615Z,98712.19
2023-05-19T22:09:59.197Z,98716.50
2023-05-19T22:13:03.092Z,98713.84
2023-05-19T22:16:06.143Z,98711.75
2023-05-19T22:19:08.835Z,98711.06
2023-05-19T22:22:14.102Z,98707.59
2023-05-19T22:25:17.623Z,98713.09
2023-05-19T22:28:21.498Z,98711.69
2023-05-19T22:31:24.142Z,98710.66
2023-05-19T22:34:26.701Z,98714.66
2023-05-19T22:37:29.610Z,98707.63
2023-05-19T22:40:32.516Z,98708.84
2023-05-19T22:43:36.660Z,98713.94
2023-05-19T22:46:39.219Z,98711.66
2023-05-19T22:49:42.291Z,98705.28
2023-05-19T22:52:44.927Z,98699.47
2023-05-19T22:55:47.599Z,98707.91
2023-05-19T22:58:51.651Z,98704.38
2023-05-19T23:01:54.346Z,98694.72
2023-05-19T23:04:56.963Z,98699.19
2023-05-19T23:07:59.506Z,98694.38
2023-05-19T23:11:02.290Z,98702.28
2023-05-19T23:14:06.157Z,98703.66
2023-05-19T23:17:08.903Z,98701.59
2023-05-19T23:20:13.265Z,98703.88
2023-05-19T23:23:17.219Z,98692.31
2023-05-19T23:26:19.791Z,98692.66
2023-05-19T23:29:23.690Z,98688.28
2023-05-19T23:32:27.115Z,98677.00
2023-05-19T23:35:29.698Z,98686.63
2023-05-19T23:38:32.483Z,98676.31
2023-05-19T23:41:35.160Z,98681.25
2023-05-19T23:44:39.509Z,98681.94
2023-05-19T23:47:42.089Z,98666.38
2023-05-19T23:50:44.909Z,98671.31
2023-05-19T23:53:47.471Z,98676.34
2023-05-19T23:56:50.052Z,98671.22
2023-05-19T23:59:53.889Z,98671.63
